createdAt,value
2022-12-12T00:01:36.380Z,3.01
2022-12-12T00:04:04.981Z,3.15
2022-12-12T00:06:31.707Z,3.12
2022-12-12T00:08:58.371Z,3.26
2022-12-12T00:11:27.355Z,3.41
2022-12-12T00:13:54.051Z,3.59
2022-12-12T00:16:23.265Z,3.81
2022-12-12T00:18:50.515Z,4.11
2022-12-12T00:21:25.086Z,4.41
2022-12-12T00:23:52.137Z,4.68
2022-12-12T00:26:32.111Z,4.87
2022-12-12T00:29:16.010Z,4.97
2022-12-12T00:31:42.384Z,4.99
2022-12-12T00:34:08.926Z,4.80
2022-12-12T00:36:36.692Z,4.77
2022-12-12T00:39:03.219Z,4.87
2022-12-12T00:41:31.476Z,4.97
2022-12-12T00:43:58.891Z,5.00
2022-12-12T00:46:25.733Z,4.95
2022-12-12T00:48:57.519Z,4.95
2022-12-12T00:51:27.718Z,4.96
2022-12-12T00:53:58.394Z,4.97
2022-12-12T00:56:27.956Z,5.06
2022-12-12T00:58:54.352Z,5.13
2022-12-12T01:01:29.067Z,5.17
2022-12-12T01:03:58.309Z,5.17
2022-12-12T01:06:27.661Z,5.09
2022-12-12T01:08:54.326Z,5.03
2022-12-12T01:11:22.064Z,5.04
2022-12-12T01:13:54.847Z,5.07
2022-12-12T01:16:23.136Z,5.10
2022-12-12T01:18:52.660Z,5.12
2022-12-12T01:21:21.351Z,5.13
2022-12-12T01:23:50.058Z,4.90
2022-12-12T01:26:23.778Z,4.70
2022-12-12T01:28:51.406Z,4.59
2022-12-12T01:31:18.287Z,4.32
2022-12-12T01:33:45.922Z,3.84
2022-12-12T01:36:20.144Z,3.70
2022-12-12T01:38:51.063Z,3.68
2022-12-12T01:41:20.199Z,3.70
2022-12-12T01:43:47.389Z,3.71
2022-12-12T01:46:45.952Z,3.76
2022-12-12T01:49:25.116Z,3.83
2022-12-12T01:52:06.949Z,3.44
2022-12-12T01:54:41.982Z,2.62
2022-12-12T01:57:17.138Z,2.72
2022-12-12T01:59:47.132Z,2.86
2022-12-12T02:02:14.245Z,3.09
2022-12-12T02:04:43.688Z,3.27
2022-12-12T02:07:10.075Z,3.43
2022-12-12T02:09:38.588Z,3.63
2022-12-12T02:12:05.556Z,3.80
2022-12-12T02:14:43.230Z,3.71
2022-12-12T02:17:28.318Z,3.67
2022-12-12T02:20:22.552Z,3.43
2022-12-12T02:23:23.403Z,3.33
2022-12-12T02:26:23.661Z,3.07
2022-12-12T02:29:36.797Z,2.04
2022-12-12T02:32:42.278Z,2.04
2022-12-12T02:35:21.716Z,1.91
2022-12-12T02:38:26.452Z,1.70
2022-12-12T02:41:14.228Z,1.48
2022-12-12T02:44:13.665Z,1.48
2022-12-12T02:47:03.769Z,1.17
2022-12-12T02:49:38.928Z,1.32
2022-12-12T02:52:10.739Z,1.66
2022-12-12T02:54:38.397Z,1.94
2022-12-12T02:57:18.307Z,2.22
2022-12-12T03:00:13.883Z,2.40
2022-12-12T03:03:33.331Z,1.95
2022-12-12T03:06:47.512Z,1.64
2022-12-12T03:09:53.226Z,1.40
2022-12-12T03:13:08.016Z,1.49
2022-12-12T03:16:02.363Z,1.91
2022-12-12T03:18:46.000Z,2.31
2022-12-12T03:21:44.652Z,2.37
2022-12-12T03:24:43.375Z,2.33
2022-12-12T03:27:19.848Z,2.36
2022-12-12T03:30:01.368Z,2.22
2022-12-12T03:32:40.992Z,2.04
2022-12-12T03:35:37.184Z,1.77
2022-12-12T03:38:16.773Z,1.35
2022-12-12T03:40:53.239Z,1.98
2022-12-12T03:43:24.031Z,1.51
2022-12-12T03:46:15.626Z,0.60
2022-12-12T03:48:51.681Z,1.30
2022-12-12T03:51:27.597Z,1.81
2022-12-12T03:54:08.109Z,1.86
2022-12-12T03:57:07.611Z,1.17
2022-12-12T03:59:53.731Z,0.95
2022-12-12T04:02:27.194Z,1.36
2022-12-12T04:05:12.484Z,1.62
2022-12-12T04:07:58.363Z,1.82
2022-12-12T04:10:53.576Z,2.02
2022-12-12T04:13:44.930Z,2.35
2022-12-12T04:16:18.487Z,2.65
2022-12-12T04:19:36.968Z,2.87
2022-12-12T04:22:27.609Z,2.94
2022-12-12T04:25:06.671Z,2.79
2022-12-12T04:27:52.083Z,2.82
2022-12-12T04:30:21.669Z,3.00
2022-12-12T04:33:12.571Z,3.15
2022-12-12T04:35:48.395Z,3.33
2022-12-12T04:38:23.451Z,3.52
2022-12-12T04:40:55.237Z,3.52
2022-12-12T04:43:33.046Z,3.48
2022-12-12T04:46:24.292Z,3.35
2022-12-12T04:49:01.541Z,3.13
2022-12-12T04:51:41.476Z,2.88
2022-12-12T04:54:34.402Z,2.68
2022-12-12T04:57:06.762Z,1.89
2022-12-12T04:59:36.539Z,2.14
2022-12-12T05:02:47.436Z,2.47
2022-12-12T05:05:27.252Z,2.44
2022-12-12T05:08:14.282Z,1.70
2022-12-12T05:10:47.522Z,1.20
2022-12-12T05:13:20.838Z,1.09
2022-12-12T05:15:53.480Z,1.15
2022-12-12T05:18:22.672Z,0.80
2022-12-12T05:20:49.944Z,1.34
2022-12-12T05:23:18.358Z,1.58
2022-12-12T05:25:45.604Z,1.53
2022-12-12T05:28:13.181Z,1.02
2022-12-12T05:30:39.674Z,1.18
2022-12-12T05:33:06.428Z,1.55
2022-12-12T05:35:36.252Z,1.55
2022-12-12T05:38:04.207Z,1.31
2022-12-12T05:40:30.997Z,1.21
2022-12-12T05:42:57.967Z,0.57
2022-12-12T05:45:26.712Z,-0.08
2022-12-12T05:47:53.579Z,-0.09
2022-12-12T05:50:20.000Z,-0.50
2022-12-12T05:52:46.581Z,-0.12
2022-12-12T05:55:14.497Z,0.46
2022-12-12T05:57:43.723Z,1.16
2022-12-12T06:00:12.277Z,1.50
2022-12-12T06:02:39.418Z,1.97
2022-12-12T06:05:06.991Z,2.05
2022-12-12T06:07:33.793Z,2.25
2022-12-12T06:10:01.839Z,2.25
2022-12-12T06:12:28.687Z,2.09
2022-12-12T06:14:55.589Z,1.83
2022-12-12T06:17:22.441Z,1.88
2022-12-12T06:19:48.913Z,2.17
2022-12-12T06:22:16.379Z,2.38
2022-12-12T06:24:44.037Z,2.78
2022-12-12T06:27:11.052Z,2.91
2022-12-12T06:29:38.368Z,3.16
2022-12-12T06:32:05.414Z,3.37
2022-12-12T06:34:32.511Z,3.60
2022-12-12T06:36:59.841Z,3.73
2022-12-12T06:39:29.920Z,3.92
2022-12-12T06:41:56.832Z,4.12
2022-12-12T06:44:25.001Z,4.26
2022-12-12T06:46:51.347Z,4.21
2022-12-12T06:49:18.116Z,3.96
2022-12-12T06:51:44.669Z,3.90
2022-12-12T06:54:17.910Z,4.10
2022-12-12T06:56:48.526Z,4.26
2022-12-12T06:59:16.585Z,4.46
2022-12-12T07:01:45.305Z,4.56
2022-12-12T07:04:13.562Z,4.27
2022-12-12T07:06:42.558Z,4.15
2022-12-12T07:09:10.590Z,4.08
2022-12-12T07:11:42.066Z,3.89
2022-12-12T07:14:10.005Z,3.95
2022-12-12T07:16:36.758Z,4.05
2022-12-12T07:19:03.968Z,4.00
2022-12-12T07:21:31.103Z,3.95
2022-12-12T07:23:59.880Z,3.74
2022-12-12T07:26:26.372Z,3.36
2022-12-12T07:28:54.710Z,3.15
2022-12-12T07:31:25.578Z,3.00
2022-12-12T07:33:54.213Z,3.06
2022-12-12T07:36:20.825Z,3.22
2022-12-12T07:38:47.452Z,3.35
2022-12-12T07:41:19.610Z,3.52
2022-12-12T07:43:49.204Z,3.68
2022-12-12T07:46:23.334Z,3.67
2022-12-12T07:48:54.181Z,3.92
2022-12-12T07:51:22.552Z,4.07
2022-12-12T07:53:49.567Z,3.93
2022-12-12T07:56:20.512Z,4.12
2022-12-12T07:58:48.155Z,3.98
2022-12-12T08:01:22.721Z,3.75
2022-12-12T08:03:55.087Z,3.09
2022-12-12T08:06:25.402Z,2.65
2022-12-12T08:08:53.050Z,2.46
2022-12-12T08:11:23.500Z,2.44
2022-12-12T08:13:54.184Z,2.45
2022-12-12T08:16:29.659Z,2.61
2022-12-12T08:19:04.753Z,2.73
2022-12-12T08:21:35.509Z,2.98
2022-12-12T08:24:14.752Z,3.29
2022-12-12T08:26:43.496Z,3.51
2022-12-12T08:29:12.334Z,3.69
2022-12-12T08:31:43.040Z,3.72
2022-12-12T08:34:09.786Z,3.76
2022-12-12T08:36:37.017Z,3.02
2022-12-12T08:39:15.275Z,3.19
2022-12-12T08:41:45.714Z,3.12
2022-12-12T08:44:15.102Z,2.83
2022-12-12T08:46:44.276Z,2.77
2022-12-12T08:49:11.873Z,1.74
2022-12-12T08:51:41.162Z,0.66
2022-12-12T08:54:12.939Z,0.75
2022-12-12T08:56:43.566Z,1.55
2022-12-12T08:59:11.250Z,2.14
2022-12-12T09:01:41.771Z,2.56
2022-12-12T09:04:11.227Z,2.94
2022-12-12T09:06:39.186Z,3.35
2022-12-12T09:09:05.870Z,3.56
2022-12-12T09:11:34.025Z,3.50
2022-12-12T09:14:00.751Z,3.43
2022-12-12T09:16:31.767Z,3.38
2022-12-12T09:18:59.516Z,2.68
2022-12-12T09:21:26.011Z,2.16
2022-12-12T09:23:52.560Z,2.10
2022-12-12T09:26:19.277Z,2.40
2022-12-12T09:28:48.803Z,1.80
2022-12-12T09:31:15.479Z,1.91
2022-12-12T09:33:42.957Z,2.52
2022-12-12T09:36:12.412Z,2.80
2022-12-12T09:38:39.071Z,3.14
2022-12-12T09:41:13.655Z,3.54
2022-12-12T09:43:55.539Z,3.96
2022-12-12T09:46:46.044Z,4.26
2022-12-12T09:49:44.718Z,4.63
2022-12-12T09:52:26.376Z,4.58
2022-12-12T09:55:00.364Z,4.43
2022-12-12T09:57:45.893Z,4.51
2022-12-12T10:00:15.829Z,4.49
2022-12-12T10:03:25.867Z,4.17
2022-12-12T10:06:28.525Z,3.97
2022-12-12T10:09:27.565Z,4.06
2022-12-12T10:11:57.452Z,4.23
2022-12-12T10:14:44.819Z,4.49
2022-12-12T10:17:20.295Z,4.77
2022-12-12T10:20:01.477Z,4.86
2022-12-12T10:22:44.405Z,4.39
2022-12-12T10:25:22.112Z,4.53
2022-12-12T10:27:54.738Z,4.82
2022-12-12T10:30:21.640Z,5.00
2022-12-12T10:33:11.690Z,4.94
2022-12-12T10:36:19.899Z,4.78
2022-12-12T10:39:29.693Z,4.23
2022-12-12T10:42:41.990Z,4.14
2022-12-12T10:45:19.800Z,4.06
2022-12-12T10:47:48.592Z,3.70
2022-12-12T10:50:35.156Z,4.08
2022-12-12T10:53:08.472Z,3.96
2022-12-12T10:55:53.239Z,3.65
2022-12-12T10:58:36.906Z,2.33
2022-12-12T11:01:44.876Z,1.94
2022-12-12T11:04:14.802Z,1.06
2022-12-12T11:06:55.238Z,0.99
2022-12-12T11:09:30.187Z,1.43
2022-12-12T11:12:11.315Z,1.69
2022-12-12T11:14:45.467Z,1.96
2022-12-12T11:17:30.361Z,1.55
2022-12-12T11:20:00.348Z,1.56
2022-12-12T11:22:31.407Z,1.41
2022-12-12T11:24:58.094Z,1.15
2022-12-12T11:27:37.577Z,1.14
2022-12-12T11:30:48.639Z,0.96
2022-12-12T11:33:32.968Z,0.19
2022-12-12T11:36:05.818Z,0.53
2022-12-12T11:38:43.856Z,0.98
2022-12-12T11:41:13.013Z,0.65
2022-12-12T11:43:48.863Z,0.14
2022-12-12T11:46:15.164Z,-0.39
2022-12-12T11:48:51.741Z,-0.11
2022-12-12T11:51:39.843Z,0.33
2022-12-12T11:54:28.599Z,0.17
2022-12-12T11:57:05.219Z,0.19
2022-12-12T11:59:47.651Z,-0.09
2022-12-12T12:02:45.808Z,0.08
2022-12-12T12:05:25.360Z,0.89
2022-12-12T12:08:18.302Z,1.19
2022-12-12T12:11:06.905Z,1.52
2022-12-12T12:13:45.660Z,1.63
2022-12-12T12:17:00.339Z,2.10
2022-12-12T12:19:26.783Z,1.51
2022-12-12T12:22:13.149Z,1.95
2022-12-12T12:25:22.472Z,2.40
2022-12-12T12:28:28.932Z,2.72
2022-12-12T12:31:42.030Z,3.08
2022-12-12T12:34:44.984Z,2.85
2022-12-12T12:37:47.032Z,2.67
2022-12-12T12:40:41.769Z,2.82
2022-12-12T12:43:20.942Z,2.56
2022-12-12T12:46:14.334Z,2.37
2022-12-12T12:48:51.140Z,2.79
2022-12-12T12:51:45.475Z,2.70
2022-12-12T12:54:24.417Z,2.39
2022-12-12T12:57:05.213Z,2.02
2022-12-12T12:59:45.144Z,1.20
2022-12-12T13:02:47.684Z,1.18
2022-12-12T13:05:26.018Z,0.99
2022-12-12T13:08:22.223Z,1.53
2022-12-12T13:11:01.271Z,0.94
2022-12-12T13:13:34.817Z,0.72
2022-12-12T13:16:11.307Z,1.40
2022-12-12T13:18:45.379Z,2.20
2022-12-12T13:21:38.057Z,2.39
2022-12-12T13:24:26.005Z,2.59
2022-12-12T13:27:25.689Z,2.84
2022-12-12T13:30:03.949Z,2.65
2022-12-12T13:33:23.451Z,2.15
2022-12-12T13:35:57.651Z,2.42
2022-12-12T13:38:32.670Z,2.56
2022-12-12T13:41:07.860Z,2.83
2022-12-12T13:43:57.914Z,3.06
2022-12-12T13:46:37.494Z,2.95
2022-12-12T13:49:24.615Z,3.13
2022-12-12T13:51:51.143Z,3.50
2022-12-12T13:54:21.548Z,3.47
2022-12-12T13:56:57.719Z,3.59
2022-12-12T13:59:29.455Z,3.95
2022-12-12T14:02:32.145Z,4.26
2022-12-12T14:05:59.565Z,4.44
2022-12-12T14:08:36.878Z,3.76
2022-12-12T14:11:09.950Z,3.50
2022-12-12T14:13:50.253Z,3.46
2022-12-12T14:16:25.017Z,3.71
2022-12-12T14:18:51.671Z,3.79
2022-12-12T14:21:35.276Z,3.97
2022-12-12T14:24:33.534Z,4.13
2022-12-12T14:27:10.500Z,4.06
2022-12-12T14:29:45.316Z,4.11
2022-12-12T14:32:12.735Z,3.85
2022-12-12T14:35:04.147Z,3.40
2022-12-12T14:38:06.004Z,3.04
2022-12-12T14:40:45.142Z,3.25
2022-12-12T14:43:27.488Z,3.22
2022-12-12T14:46:01.155Z,2.63
2022-12-12T14:48:36.081Z,2.40
2022-12-12T14:51:30.202Z,2.38
2022-12-12T14:54:01.168Z,2.40
2022-12-12T14:56:52.248Z,2.23
2022-12-12T14:59:28.972Z,1.65
2022-12-12T15:02:05.063Z,1.40
2022-12-12T15:04:39.153Z,1.98
2022-12-12T15:07:31.444Z,2.00
2022-12-12T15:09:58.210Z,1.96
2022-12-12T15:12:44.456Z,1.05
2022-12-12T15:15:26.039Z,0.41
2022-12-12T15:17:56.517Z,-0.29
2022-12-12T15:20:30.468Z,-0.38
2022-12-12T15:23:05.383Z,0.69
2022-12-12T15:25:46.560Z,1.04
2022-12-12T15:28:18.393Z,-0.15
2022-12-12T15:30:50.584Z,0.01
2022-12-12T15:33:24.533Z,0.56
2022-12-12T15:36:25.319Z,0.64
2022-12-12T15:39:16.513Z,0.70
2022-12-12T15:41:44.939Z,1.10
2022-12-12T15:44:20.360Z,1.22
2022-12-12T15:46:49.910Z,1.58
2022-12-12T15:49:44.433Z,1.18
2022-12-12T15:52:28.491Z,0.88
2022-12-12T15:54:59.360Z,0.80
2022-12-12T15:57:43.436Z,1.15
2022-12-12T16:00:27.598Z,1.50
2022-12-12T16:03:17.417Z,0.46
2022-12-12T16:06:03.372Z,0.48
2022-12-12T16:08:38.871Z,1.47
2022-12-12T16:11:49.195Z,2.02
2022-12-12T16:14:42.672Z,2.46
2022-12-12T16:17:24.751Z,2.66
2022-12-12T16:19:58.339Z,2.62
2022-12-12T16:22:41.625Z,2.58
2022-12-12T16:25:28.751Z,2.05
2022-12-12T16:28:23.250Z,1.60
2022-12-12T16:30:57.529Z,0.74
2022-12-12T16:33:38.525Z,0.67
2022-12-12T16:36:10.470Z,1.24
2022-12-12T16:38:40.963Z,0.72
2022-12-12T16:41:19.215Z,1.00
2022-12-12T16:43:46.273Z,1.04
2022-12-12T16:46:25.285Z,0.35
2022-12-12T16:48:56.581Z,0.34
2022-12-12T16:51:33.439Z,-0.35
2022-12-12T16:54:02.811Z,0.50
2022-12-12T16:56:29.369Z,1.04
2022-12-12T16:58:57.788Z,1.11
2022-12-12T17:01:24.205Z,1.41
2022-12-12T17:03:54.267Z,1.29
2022-12-12T17:06:21.019Z,1.52
2022-12-12T17:08:49.768Z,1.81
2022-12-12T17:11:19.038Z,2.19
2022-12-12T17:13:50.329Z,2.34
2022-12-12T17:16:27.349Z,2.34
2022-12-12T17:18:55.286Z,2.45
2022-12-12T17:21:21.814Z,2.62
2022-12-12T17:23:52.236Z,2.29
2022-12-12T17:26:20.268Z,1.87
2022-12-12T17:28:47.819Z,2.19
2022-12-12T17:31:14.694Z,2.64
2022-12-12T17:33:49.943Z,2.90
2022-12-12T17:36:18.751Z,2.36
2022-12-12T17:38:45.922Z,2.59
2022-12-12T17:41:13.222Z,2.83
2022-12-12T17:43:41.679Z,3.09
2022-12-12T17:46:15.032Z,3.08
2022-12-12T17:48:46.685Z,2.89
2022-12-12T17:51:23.623Z,2.39
2022-12-12T17:53:52.325Z,1.75
2022-12-12T17:56:27.594Z,1.92
2022-12-12T17:58:54.991Z,1.20
2022-12-12T18:01:31.041Z,1.79
2022-12-12T18:04:01.795Z,1.51
2022-12-12T18:06:33.221Z,1.22
2022-12-12T18:09:03.833Z,0.54
2022-12-12T18:11:33.336Z,0.46
2022-12-12T18:14:05.704Z,-0.00
2022-12-12T18:16:35.354Z,-0.50
2022-12-12T18:19:03.708Z,-0.81
2022-12-12T18:24:22.270Z,-1.79
2022-12-12T18:26:56.648Z,-1.84
2022-12-12T18:29:25.529Z,-1.76
2022-12-12T18:31:54.089Z,-2.30
2022-12-12T18:34:22.059Z,-1.50
2022-12-12T18:36:49.131Z,-1.30
2022-12-12T18:39:18.341Z,-1.11
2022-12-12T18:41:46.572Z,-0.76
2022-12-12T18:44:15.030Z,-1.05
2022-12-12T18:46:43.991Z,-0.67
2022-12-12T18:49:15.197Z,-0.91
2022-12-12T18:51:44.723Z,-1.46
2022-12-12T18:54:16.398Z,-2.18
2022-12-12T18:56:46.189Z,-2.05
2022-12-12T18:59:15.575Z,-2.22
2022-12-12T19:01:43.432Z,-1.58
2022-12-12T19:04:14.059Z,-1.40
2022-12-12T19:06:44.068Z,-1.26
2022-12-12T19:09:15.687Z,-1.53
2022-12-12T19:11:44.886Z,-1.54
2022-12-12T19:14:15.378Z,-2.20
2022-12-12T19:16:43.869Z,-1.47
2022-12-12T19:19:11.602Z,-1.74
2022-12-12T19:21:39.494Z,-1.70
2022-12-12T19:24:13.716Z,-1.32
2022-12-12T19:26:45.727Z,-0.88
2022-12-12T19:29:16.852Z,-1.06
2022-12-12T19:31:50.535Z,-0.42
2022-12-12T19:34:21.003Z,-0.26
2022-12-12T19:36:47.627Z,-0.04
2022-12-12T19:39:14.676Z,0.30
2022-12-12T19:41:42.665Z,0.89
2022-12-12T19:44:12.916Z,1.23
2022-12-12T19:46:43.752Z,0.63
2022-12-12T19:49:14.140Z,0.59
2022-12-12T19:51:44.716Z,0.46
2022-12-12T19:54:20.609Z,0.07
2022-12-12T19:56:49.562Z,-0.71
2022-12-12T19:59:19.004Z,-0.49
2022-12-12T20:01:46.564Z,-0.85
2022-12-12T20:04:18.781Z,-0.65
2022-12-12T20:06:48.635Z,-0.87
2022-12-12T20:09:25.932Z,-0.84
2022-12-12T20:11:56.268Z,-1.50
2022-12-12T20:14:30.080Z,-2.18
2022-12-12T20:16:58.234Z,-0.90
2022-12-12T20:19:26.542Z,-1.34
2022-12-12T20:22:03.834Z,-0.61
2022-12-12T20:24:35.184Z,-0.41
2022-12-12T20:27:03.963Z,-0.60
2022-12-12T20:29:31.079Z,0.15
2022-12-12T20:31:59.412Z,0.52
2022-12-12T20:34:25.926Z,0.88
2022-12-12T20:36:54.823Z,0.45
2022-12-12T20:39:25.175Z,-0.67
2022-12-12T20:41:53.290Z,-0.28
2022-12-12T20:44:22.627Z,-1.20
2022-12-12T20:46:49.702Z,-1.04
2022-12-12T20:49:19.609Z,-0.87
2022-12-12T20:51:57.250Z,-0.73
2022-12-12T20:54:28.634Z,-0.31
2022-12-12T20:56:57.665Z,-0.98
2022-12-12T20:59:26.321Z,-1.28
2022-12-12T21:01:53.401Z,-1.24
2022-12-12T21:04:21.800Z,-1.02
2022-12-12T21:06:52.170Z,-1.49
2022-12-12T21:09:25.630Z,-1.40
2022-12-12T21:12:00.613Z,-0.45
2022-12-12T21:14:29.960Z,-0.43
2022-12-12T21:16:56.430Z,-0.84
2022-12-12T21:19:24.656Z,-0.15
2022-12-12T21:21:53.930Z,-0.72
2022-12-12T21:24:21.365Z,-0.65
2022-12-12T21:26:48.722Z,-0.99
2022-12-12T21:29:20.336Z,-0.07
2022-12-12T21:31:51.486Z,-0.09
2022-12-12T21:34:22.454Z,0.05
2022-12-12T21:36:55.144Z,-0.13
2022-12-12T21:39:26.204Z,-0.57
2022-12-12T21:41:56.496Z,-0.28
2022-12-12T21:44:24.223Z,-1.33
2022-12-12T21:46:52.147Z,-1.75
2022-12-12T21:49:30.560Z,-2.28
2022-12-12T21:52:06.873Z,-2.35
2022-12-12T21:54:34.300Z,-1.46
2022-12-12T21:57:03.873Z,-0.90
2022-12-12T21:59:32.963Z,-0.32
2022-12-12T22:04:44.174Z,0.26
2022-12-12T22:07:11.679Z,0.64
2022-12-12T22:09:41.493Z,0.94
2022-12-12T22:12:09.175Z,1.20
2022-12-12T22:14:35.974Z,1.47
2022-12-12T22:17:05.068Z,1.75
2022-12-12T22:19:35.218Z,1.93
2022-12-12T22:22:01.659Z,2.19
2022-12-12T22:24:29.906Z,2.36
2022-12-12T22:26:56.761Z,2.60
2022-12-12T22:29:23.240Z,2.85
2022-12-12T22:31:51.434Z,3.08
2022-12-12T22:34:23.337Z,3.28
2022-12-12T22:36:53.004Z,3.28
2022-12-12T22:39:28.383Z,3.29
2022-12-12T22:41:57.883Z,3.38
2022-12-12T22:44:26.313Z,3.33
2022-12-12T22:46:55.066Z,3.25
2022-12-12T22:49:25.396Z,3.21
2022-12-12T22:51:55.159Z,3.34
2022-12-12T22:54:25.212Z,3.59
2022-12-12T22:56:51.675Z,3.81
2022-12-12T22:59:20.023Z,4.03
2022-12-12T23:01:47.704Z,4.19
2022-12-12T23:04:17.576Z,4.20
2022-12-12T23:06:44.957Z,4.26
2022-12-12T23:09:16.679Z,4.39
2022-12-12T23:11:46.362Z,4.26
2022-12-12T23:14:18.739Z,4.16
2022-12-12T23:16:46.768Z,3.79
2022-12-12T23:19:20.412Z,3.84
2022-12-12T23:21:47.588Z,3.83
2022-12-12T23:24:15.627Z,3.81
2022-12-12T23:26:43.152Z,3.85
2022-12-12T23:29:15.476Z,3.64
2022-12-12T23:31:46.284Z,3.66
2022-12-12T23:34:22.270Z,3.68
2022-12-12T23:36:54.138Z,3.50
2022-12-12T23:39:22.940Z,3.56
2022-12-12T23:41:51.515Z,3.62
2022-12-12T23:44:23.068Z,3.72
2022-12-12T23:46:50.573Z,3.83
2022-12-12T23:49:25.437Z,3.96
2022-12-12T23:51:57.601Z,4.15
2022-12-12T23:54:32.854Z,4.35
2022-12-12T23:57:01.159Z,4.46
2022-12-12T23:59:28.969Z,4.45
